sensor_id;sensor_type;location;lat;lon;timestamp;temperature;humidity
20102;DHT22;10210;52.284;9.892;2023-05-10T00:00:34;17.50;99.90
20102;DHT22;10210;52.284;9.892;2023-05-10T00:02:59;17.50;99.90
20102;DHT22;10210;52.284;9.892;2023-05-10T00:05:25;17.50;99.90
20102;DHT22;10210;52.284;9.892;2023-05-10T00:07:51;17.50;99.90
20102;DHT22;10210;52.284;9.892;2023-05-10T00:10:16;17.50;99.90
20102;DHT22;10210;52.284;9.892;2023-05-10T00:12:42;17.40;99.90
20102;DHT22;10210;52.284;9.892;2023-05-10T00:15:08;17.40;99.90
20102;DHT22;10210;52.284;9.892;2023-05-10T00:17:34;17.40;99.90
20102;DHT22;10210;52.284;9.892;2023-05-10T00:20:00;17.40;99.90
20102;DHT22;10210;52.284;9.892;2023-05-10T00:22:26;17.40;99.90
20102;DHT22;10210;52.284;9.892;2023-05-10T00:24:51;17.50;99.90
20102;DHT22;10210;52.284;9.892;2023-05-10T00:27:17;17.50;99.90
20102;DHT22;10210;52.284;9.892;2023-05-10T00:29:42;17.50;99.90
20102;DHT22;10210;52.284;9.892;2023-05-10T00:32:08;17.50;99.90
20102;DHT22;10210;52.284;9.892;2023-05-10T00:34:34;17.40;99.90
20102;DHT22;10210;52.284;9.892;2023-05-10T00:36:59;17.40;99.90
20102;DHT22;10210;52.284;9.892;2023-05-10T00:39:25;17.50;99.90
20102;DHT22;10210;52.284;9.892;2023-05-10T00:41:52;17.40;99.90
20102;DHT22;10210;52.284;9.892;2023-05-10T00:44:17;17.40;99.90
20102;DHT22;10210;52.284;9.892;2023-05-10T00:46:44;17.50;99.90
20102;DHT22;10210;52.284;9.892;2023-05-10T00:49:10;17.50;99.90
20102;DHT22;10210;52.284;9.892;2023-05-10T00:51:36;17.40;99.90
20102;DHT22;10210;52.284;9.892;2023-05-10T00:54:02;17.50;99.90
20102;DHT22;10210;52.284;9.892;2023-05-10T00:56:28;17.40;99.90
20102;DHT22;10210;52.284;9.892;2023-05-10T00:58:55;17.40;99.90
20102;DHT22;10210;52.284;9.892;2023-05-10T01:01:21;17.40;99.90
20102;DHT22;10210;52.284;9.892;2023-05-10T01:03:47;17.40;99.90
20102;DHT22;10210;52.284;9.892;2023-05-10T01:06:13;17.40;99.90
20102;DHT22;10210;52.284;9.892;2023-05-10T01:08:39;17.40;99.90
20102;DHT22;10210;52.284;9.892;2023-05-10T01:11:05;17.40;99.90
20102;DHT22;10210;52.284;9.892;2023-05-10T01:13:35;17.40;99.90
20102;DHT22;10210;52.284;9.892;2023-05-10T01:16:03;17.40;99.90
20102;DHT22;10210;52.284;9.892;2023-05-10T01:18:35;17.40;99.90
20102;DHT22;10210;52.284;9.892;2023-05-10T01:24:06;17.30;99.90
20102;DHT22;10210;52.284;9.892;2023-05-10T01:30:08;17.30;99.90
20102;DHT22;10210;52.284;9.892;2023-05-10T01:41:18;17.10;99.90
20102;DHT22;10210;52.284;9.892;2023-05-10T01:43:55;17.00;99.90
20102;DHT22;10210;52.284;9.892;2023-05-10T01:46:32;17.00;99.90
20102;DHT22;10210;52.284;9.892;2023-05-10T01:49:03;16.90;99.90
20102;DHT22;10210;52.284;9.892;2023-05-10T01:51:48;16.90;99.90
20102;DHT22;10210;52.284;9.892;2023-05-10T01:54:19;16.80;99.90
20102;DHT22;10210;52.284;9.892;2023-05-10T01:56:50;16.70;99.90
20102;DHT22;10210;52.284;9.892;2023-05-10T01:59:22;16.70;99.90
20102;DHT22;10210;52.284;9.892;2023-05-10T02:01:51;16.60;99.90
20102;DHT22;10210;52.284;9.892;2023-05-10T02:04:19;16.60;99.90
20102;DHT22;10210;52.284;9.892;2023-05-10T02:06:48;16.50;99.90
20102;DHT22;10210;52.284;9.892;2023-05-10T02:09:16;16.50;99.90
20102;DHT22;10210;52.284;9.892;2023-05-10T02:11:44;16.40;99.90
20102;DHT22;10210;52.284;9.892;2023-05-10T02:14:14;16.40;99.90
20102;DHT22;10210;52.284;9.892;2023-05-10T02:16:41;16.30;99.90
20102;DHT22;10210;52.284;9.892;2023-05-10T02:19:07;16.30;99.90
20102;DHT22;10210;52.284;9.892;2023-05-10T02:21:34;16.30;99.90
20102;DHT22;10210;52.284;9.892;2023-05-10T02:24:02;16.20;99.90
20102;DHT22;10210;52.284;9.892;2023-05-10T02:26:30;16.20;99.90
20102;DHT22;10210;52.284;9.892;2023-05-10T02:28:58;16.20;99.90
20102;DHT22;10210;52.284;9.892;2023-05-10T02:31:24;16.10;99.90
20102;DHT22;10210;52.284;9.892;2023-05-10T02:33:51;16.10;99.90
20102;DHT22;10210;52.284;9.892;2023-05-10T02:36:19;16.10;99.90
20102;DHT22;10210;52.284;9.892;2023-05-10T02:38:47;16.10;99.90
20102;DHT22;10210;52.284;9.892;2023-05-10T02:41:15;16.00;99.90
20102;DHT22;10210;52.284;9.892;2023-05-10T02:43:42;16.00;99.90
20102;DHT22;10210;52.284;9.892;2023-05-10T02:46:09;16.00;99.90
20102;DHT22;10210;52.284;9.892;2023-05-10T02:48:35;16.00;99.90
20102;DHT22;10210;52.284;9.892;2023-05-10T02:51:05;15.90;99.90
20102;DHT22;10210;52.284;9.892;2023-05-10T02:53:35;15.90;99.90
20102;DHT22;10210;52.284;9.892;2023-05-10T02:56:14;15.90;99.90
20102;DHT22;10210;52.284;9.892;2023-05-10T02:58:45;15.90;99.90
20102;DHT22;10210;52.284;9.892;2023-05-10T03:01:11;15.90;99.90
20102;DHT22;10210;52.284;9.892;2023-05-10T03:03:37;15.90;99.90
20102;DHT22;10210;52.284;9.892;2023-05-10T03:06:03;15.90;99.90
20102;DHT22;10210;52.284;9.892;2023-05-10T03:08:29;15.90;99.90
20102;DHT22;10210;52.284;9.892;2023-05-10T03:11:16;15.90;99.90
20102;DHT22;10210;52.284;9.892;2023-05-10T03:14:25;15.90;99.90
20102;DHT22;10210;52.284;9.892;2023-05-10T03:17:11;15.90;99.90
20102;DHT22;10210;52.284;9.892;2023-05-10T03:19:55;15.90;99.90
20102;DHT22;10210;52.284;9.892;2023-05-10T03:22:47;15.90;99.90
20102;DHT22;10210;52.284;9.892;2023-05-10T03:25:18;15.90;99.90
20102;DHT22;10210;52.284;9.892;2023-05-10T03:27:47;15.90;99.90
20102;DHT22;10210;52.284;9.892;2023-05-10T03:30:14;16.00;99.90
20102;DHT22;10210;52.284;9.892;2023-05-10T03:32:41;15.90;99.90
20102;DHT22;10210;52.284;9.892;2023-05-10T03:35:11;15.90;99.90
20102;DHT22;10210;52.284;9.892;2023-05-10T03:37:38;15.90;99.90
20102;DHT22;10210;52.284;9.892;2023-05-10T03:40:05;15.90;99.90
20102;DHT22;10210;52.284;9.892;2023-05-10T03:42:31;15.90;99.90
20102;DHT22;10210;52.284;9.892;2023-05-10T03:44:56;15.90;99.90
20102;DHT22;10210;52.284;9.892;2023-05-10T03:47:22;15.80;99.90
20102;DHT22;10210;52.284;9.892;2023-05-10T03:49:49;15.80;99.90
20102;DHT22;10210;52.284;9.892;2023-05-10T03:52:15;15.80;99.90
20102;DHT22;10210;52.284;9.892;2023-05-10T03:54:41;15.70;99.90
20102;DHT22;10210;52.284;9.892;2023-05-10T03:57:06;15.70;99.90
20102;DHT22;10210;52.284;9.892;2023-05-10T03:59:32;15.70;99.90
20102;DHT22;10210;52.284;9.892;2023-05-10T04:01:58;15.70;99.90
20102;DHT22;10210;52.284;9.892;2023-05-10T04:04:23;15.70;99.90
20102;DHT22;10210;52.284;9.892;2023-05-10T04:06:49;15.60;99.90
20102;DHT22;10210;52.284;9.892;2023-05-10T04:09:15;15.60;99.90
20102;DHT22;10210;52.284;9.892;2023-05-10T04:11:42;15.60;99.90
20102;DHT22;10210;52.284;9.892;2023-05-10T04:14:09;15.60;99.90
20102;DHT22;10210;52.284;9.892;2023-05-10T04:16:35;15.60;99.90
20102;DHT22;10210;52.284;9.892;2023-05-10T04:19:00;15.50;99.90
20102;DHT22;10210;52.284;9.892;2023-05-10T04:21:26;15.50;99.90
20102;DHT22;10210;52.284;9.892;2023-05-10T04:23:52;15.50;99.90
20102;DHT22;10210;52.284;9.892;2023-05-10T04:26:17;15.50;99.90
20102;DHT22;10210;52.284;9.892;2023-05-10T04:28:43;15.50;99.90
20102;DHT22;10210;52.284;9.892;2023-05-10T04:31:09;15.50;99.90
20102;DHT22;10210;52.284;9.892;2023-05-10T04:33:36;15.50;99.90
20102;DHT22;10210;52.284;9.892;2023-05-10T04:36:02;15.50;99.90
20102;DHT22;10210;52.284;9.892;2023-05-10T04:38:29;15.50;99.90
20102;DHT22;10210;52.284;9.892;2023-05-10T04:41:03;15.50;99.90
20102;DHT22;10210;52.284;9.892;2023-05-10T04:43:30;15.50;99.90
20102;DHT22;10210;52.284;9.892;2023-05-10T04:45:59;15.50;99.90
20102;DHT22;10210;52.284;9.892;2023-05-10T04:48:25;15.60;99.90
20102;DHT22;10210;52.284;9.892;2023-05-10T04:50:50;15.60;99.90
20102;DHT22;10210;52.284;9.892;2023-05-10T04:53:16;15.60;99.90
20102;DHT22;10210;52.284;9.892;2023-05-10T04:55:42;15.60;99.90
20102;DHT22;10210;52.284;9.892;2023-05-10T04:58:07;15.60;99.90
20102;DHT22;10210;52.284;9.892;2023-05-10T05:00:33;15.60;99.90
20102;DHT22;10210;52.284;9.892;2023-05-10T05:02:59;15.50;99.90
20102;DHT22;10210;52.284;9.892;2023-05-10T05:05:25;15.50;99.90
20102;DHT22;10210;52.284;9.892;2023-05-10T05:07:50;15.50;99.90
20102;DHT22;10210;52.284;9.892;2023-05-10T05:10:16;15.60;99.90
20102;DHT22;10210;52.284;9.892;2023-05-10T05:12:42;15.60;99.90
20102;DHT22;10210;52.284;9.892;2023-05-10T05:15:08;15.60;99.90
20102;DHT22;10210;52.284;9.892;2023-05-10T05:17:35;15.60;99.90
20102;DHT22;10210;52.284;9.892;2023-05-10T05:20:01;15.60;99.90
20102;DHT22;10210;52.284;9.892;2023-05-10T05:22:26;15.60;99.90
20102;DHT22;10210;52.284;9.892;2023-05-10T05:24:56;15.50;99.90
20102;DHT22;10210;52.284;9.892;2023-05-10T05:27:24;15.50;99.90
20102;DHT22;10210;52.284;9.892;2023-05-10T05:29:55;15.60;99.90
20102;DHT22;10210;52.284;9.892;2023-05-10T05:32:21;15.60;99.90
20102;DHT22;10210;52.284;9.892;2023-05-10T05:34:51;15.60;99.90
20102;DHT22;10210;52.284;9.892;2023-05-10T05:37:20;15.50;99.90
20102;DHT22;10210;52.284;9.892;2023-05-10T05:39:46;15.60;99.90
20102;DHT22;10210;52.284;9.892;2023-05-10T05:42:13;15.60;99.90
20102;DHT22;10210;52.284;9.892;2023-05-10T05:44:39;15.60;99.90
20102;DHT22;10210;52.284;9.892;2023-05-10T05:47:05;15.60;99.90
20102;DHT22;10210;52.284;9.892;2023-05-10T05:49:32;15.60;99.90
20102;DHT22;10210;52.284;9.892;2023-05-10T05:52:02;15.60;99.90
20102;DHT22;10210;52.284;9.892;2023-05-10T05:54:29;15.60;99.90
20102;DHT22;10210;52.284;9.892;2023-05-10T05:56:57;15.70;99.90
20102;DHT22;10210;52.284;9.892;2023-05-10T05:59:24;15.70;99.90
20102;DHT22;10210;52.284;9.892;2023-05-10T06:01:50;15.70;99.90
20102;DHT22;10210;52.284;9.892;2023-05-10T06:04:16;15.70;99.90
20102;DHT22;10210;52.284;9.892;2023-05-10T06:06:42;15.80;99.90
20102;DHT22;10210;52.284;9.892;2023-05-10T06:09:08;15.80;99.90
20102;DHT22;10210;52.284;9.892;2023-05-10T06:11:34;15.80;99.90
20102;DHT22;10210;52.284;9.892;2023-05-10T06:14:01;15.80;99.90
20102;DHT22;10210;52.284;9.892;2023-05-10T06:16:30;15.80;99.90
20102;DHT22;10210;52.284;9.892;2023-05-10T06:18:56;15.80;99.90
20102;DHT22;10210;52.284;9.892;2023-05-10T06:21:21;15.80;99.90
20102;DHT22;10210;52.284;9.892;2023-05-10T06:23:47;15.80;99.90
20102;DHT22;10210;52.284;9.892;2023-05-10T06:26:13;15.80;99.90
20102;DHT22;10210;52.284;9.892;2023-05-10T06:28:39;15.80;99.90
20102;DHT22;10210;52.284;9.892;2023-05-10T06:31:05;15.70;99.90
20102;DHT22;10210;52.284;9.892;2023-05-10T06:33:32;15.70;99.90
20102;DHT22;10210;52.284;9.892;2023-05-10T06:35:58;15.70;99.90
20102;DHT22;10210;52.284;9.892;2023-05-10T06:38:24;15.70;99.90
20102;DHT22;10210;52.284;9.892;2023-05-10T06:40:50;15.80;99.90
20102;DHT22;10210;52.284;9.892;2023-05-10T06:43:16;15.80;99.90
20102;DHT22;10210;52.284;9.892;2023-05-10T06:45:41;15.80;99.90
20102;DHT22;10210;52.284;9.892;2023-05-10T06:48:07;15.80;99.90
20102;DHT22;10210;52.284;9.892;2023-05-10T06:50:33;15.80;99.90
20102;DHT22;10210;52.284;9.892;2023-05-10T06:52:59;15.80;99.90
20102;DHT22;10210;52.284;9.892;2023-05-10T06:55:26;15.80;99.90
20102;DHT22;10210;52.284;9.892;2023-05-10T06:57:51;15.80;99.90
20102;DHT22;10210;52.284;9.892;2023-05-10T07:00:18;15.80;99.90
20102;DHT22;10210;52.284;9.892;2023-05-10T07:02:44;15.80;99.90
20102;DHT22;10210;52.284;9.892;2023-05-10T07:05:11;15.80;99.90
20102;DHT22;10210;52.284;9.892;2023-05-10T07:07:37;15.80;99.90
20102;DHT22;10210;52.284;9.892;2023-05-10T07:10:03;15.90;99.90
20102;DHT22;10210;52.284;9.892;2023-05-10T07:12:30;15.90;99.90
20102;DHT22;10210;52.284;9.892;2023-05-10T07:14:55;15.90;99.90
20102;DHT22;10210;52.284;9.892;2023-05-10T07:17:21;15.90;99.90
20102;DHT22;10210;52.284;9.892;2023-05-10T07:19:47;15.90;99.90
20102;DHT22;10210;52.284;9.892;2023-05-10T07:22:12;16.00;99.90
20102;DHT22;10210;52.284;9.892;2023-05-10T07:24:38;16.00;99.90
20102;DHT22;10210;52.284;9.892;2023-05-10T07:27:04;16.00;99.90
20102;DHT22;10210;52.284;9.892;2023-05-10T07:29:29;16.00;99.90
20102;DHT22;10210;52.284;9.892;2023-05-10T07:31:55;16.00;99.90
20102;DHT22;10210;52.284;9.892;2023-05-10T07:34:21;16.10;99.90
20102;DHT22;10210;52.284;9.892;2023-05-10T07:36:47;16.10;99.90
20102;DHT22;10210;52.284;9.892;2023-05-10T07:39:13;16.10;99.90
20102;DHT22;10210;52.284;9.892;2023-05-10T07:41:39;16.20;99.90
20102;DHT22;10210;52.284;9.892;2023-05-10T07:44:05;16.20;99.90
20102;DHT22;10210;52.284;9.892;2023-05-10T07:46:31;16.20;99.90
20102;DHT22;10210;52.284;9.892;2023-05-10T07:48:57;16.20;99.90
20102;DHT22;10210;52.284;9.892;2023-05-10T07:51:22;16.30;99.90
20102;DHT22;10210;52.284;9.892;2023-05-10T07:53:48;16.20;99.90
20102;DHT22;10210;52.284;9.892;2023-05-10T07:56:25;16.30;99.90
20102;DHT22;10210;52.284;9.892;2023-05-10T07:58:55;16.30;99.90
20102;DHT22;10210;52.284;9.892;2023-05-10T08:01:23;16.30;99.90
20102;DHT22;10210;52.284;9.892;2023-05-10T08:03:49;16.40;99.90
20102;DHT22;10210;52.284;9.892;2023-05-10T08:06:17;16.40;99.90
20102;DHT22;10210;52.284;9.892;2023-05-10T08:08:43;16.40;99.90
20102;DHT22;10210;52.284;9.892;2023-05-10T08:11:17;16.40;99.90
20102;DHT22;10210;52.284;9.892;2023-05-10T08:13:43;16.40;99.90
20102;DHT22;10210;52.284;9.892;2023-05-10T08:16:12;16.50;99.90
20102;DHT22;10210;52.284;9.892;2023-05-10T08:18:39;16.50;99.90
20102;DHT22;10210;52.284;9.892;2023-05-10T08:21:05;16.50;99.90
20102;DHT22;10210;52.284;9.892;2023-05-10T08:23:31;16.50;99.90
20102;DHT22;10210;52.284;9.892;2023-05-10T08:25:57;16.60;99.90
20102;DHT22;10210;52.284;9.892;2023-05-10T08:28:23;16.60;99.90
20102;DHT22;10210;52.284;9.892;2023-05-10T08:30:50;16.60;99.90
20102;DHT22;10210;52.284;9.892;2023-05-10T08:33:17;16.60;99.90
20102;DHT22;10210;52.284;9.892;2023-05-10T08:35:44;16.60;99.90
20102;DHT22;10210;52.284;9.892;2023-05-10T08:38:09;16.70;99.90
20102;DHT22;10210;52.284;9.892;2023-05-10T08:40:37;16.70;99.90
20102;DHT22;10210;52.284;9.892;2023-05-10T08:43:08;16.70;99.90
20102;DHT22;10210;52.284;9.892;2023-05-10T08:45:41;16.70;99.90
20102;DHT22;10210;52.284;9.892;2023-05-10T08:48:11;16.70;99.90
20102;DHT22;10210;52.284;9.892;2023-05-10T08:50:40;16.70;99.90
20102;DHT22;10210;52.284;9.892;2023-05-10T08:53:11;16.70;99.90
20102;DHT22;10210;52.284;9.892;2023-05-10T08:55:39;16.80;99.90
20102;DHT22;10210;52.284;9.892;2023-05-10T08:58:07;16.80;99.90
20102;DHT22;10210;52.284;9.892;2023-05-10T09:00:34;16.80;99.90
20102;DHT22;10210;52.284;9.892;2023-05-10T09:03:03;16.80;99.90
20102;DHT22;10210;52.284;9.892;2023-05-10T09:05:30;16.90;99.90
20102;DHT22;10210;52.284;9.892;2023-05-10T09:07:57;16.90;99.90
20102;DHT22;10210;52.284;9.892;2023-05-10T09:10:25;17.00;99.90
20102;DHT22;10210;52.284;9.892;2023-05-10T09:12:53;17.00;99.90
20102;DHT22;10210;52.284;9.892;2023-05-10T09:15:21;17.00;99.90
20102;DHT22;10210;52.284;9.892;2023-05-10T09:17:49;17.10;99.90
20102;DHT22;10210;52.284;9.892;2023-05-10T09:20:15;17.10;99.90
20102;DHT22;10210;52.284;9.892;2023-05-10T09:22:42;17.10;99.90
20102;DHT22;10210;52.284;9.892;2023-05-10T09:25:10;17.10;99.90
20102;DHT22;10210;52.284;9.892;2023-05-10T09:27:39;17.10;99.90
20102;DHT22;10210;52.284;9.892;2023-05-10T09:30:06;17.10;99.90
20102;DHT22;10210;52.284;9.892;2023-05-10T09:32:59;17.20;99.90
20102;DHT22;10210;52.284;9.892;2023-05-10T09:35:27;17.10;99.90
20102;DHT22;10210;52.284;9.892;2023-05-10T09:37:56;17.10;99.90
20102;DHT22;10210;52.284;9.892;2023-05-10T09:40:24;17.20;99.90
20102;DHT22;10210;52.284;9.892;2023-05-10T09:42:56;17.10;99.90
20102;DHT22;10210;52.284;9.892;2023-05-10T09:45:31;17.10;99.90
20102;DHT22;10210;52.284;9.892;2023-05-10T09:47:58;17.20;99.90
20102;DHT22;10210;52.284;9.892;2023-05-10T09:50:26;17.20;99.90
20102;DHT22;10210;52.284;9.892;2023-05-10T09:55:37;17.20;99.90
20102;DHT22;10210;52.284;9.892;2023-05-10T09:58:07;17.20;99.90
20102;DHT22;10210;52.284;9.892;2023-05-10T10:00:43;17.20;99.90
20102;DHT22;10210;52.284;9.892;2023-05-10T10:03:28;17.20;99.90
20102;DHT22;10210;52.284;9.892;2023-05-10T10:05:55;17.30;99.90
20102;DHT22;10210;52.284;9.892;2023-05-10T10:08:21;17.30;99.90
20102;DHT22;10210;52.284;9.892;2023-05-10T10:10:47;17.30;99.90
20102;DHT22;10210;52.284;9.892;2023-05-10T10:13:14;17.40;99.90
20102;DHT22;10210;52.284;9.892;2023-05-10T10:15:42;17.40;99.90
20102;DHT22;10210;52.284;9.892;2023-05-10T10:18:13;17.40;99.90
20102;DHT22;10210;52.284;9.892;2023-05-10T10:20:40;17.50;99.90
20102;DHT22;10210;52.284;9.892;2023-05-10T10:23:08;17.50;99.90
20102;DHT22;10210;52.284;9.892;2023-05-10T10:25:33;17.50;99.90
20102;DHT22;10210;52.284;9.892;2023-05-10T10:28:16;17.60;99.90
20102;DHT22;10210;52.284;9.892;2023-05-10T10:30:51;17.60;99.90
20102;DHT22;10210;52.284;9.892;2023-05-10T10:33:51;17.70;99.90
20102;DHT22;10210;52.284;9.892;2023-05-10T10:36:26;17.80;99.90
20102;DHT22;10210;52.284;9.892;2023-05-10T10:38:56;17.80;99.90
20102;DHT22;10210;52.284;9.892;2023-05-10T10:41:35;17.90;99.90
20102;DHT22;10210;52.284;9.892;2023-05-10T10:49:50;18.10;99.90
20102;DHT22;10210;52.284;9.892;2023-05-10T10:52:42;18.20;99.90
20102;DHT22;10210;52.284;9.892;2023-05-10T10:57:44;18.40;99.90
20102;DHT22;10210;52.284;9.892;2023-05-10T11:07:55;18.60;99.90
20102;DHT22;10210;52.284;9.892;2023-05-10T11:10:23;18.70;99.90
20102;DHT22;10210;52.284;9.892;2023-05-10T11:15:35;18.80;99.90
20102;DHT22;10210;52.284;9.892;2023-05-10T11:18:19;18.90;99.90
20102;DHT22;10210;52.284;9.892;2023-05-10T11:21:09;18.90;99.90
20102;DHT22;10210;52.284;9.892;2023-05-10T11:23:51;19.00;99.90
20102;DHT22;10210;52.284;9.892;2023-05-10T11:26:19;19.10;99.90
20102;DHT22;10210;52.284;9.892;2023-05-10T11:28:49;19.20;99.90
20102;DHT22;10210;52.284;9.892;2023-05-10T11:31:17;19.20;99.90
20102;DHT22;10210;52.284;9.892;2023-05-10T11:33:44;19.20;99.90
20102;DHT22;10210;52.284;9.892;2023-05-10T11:36:19;19.30;99.90
20102;DHT22;10210;52.284;9.892;2023-05-10T11:38:48;19.40;99.90
20102;DHT22;10210;52.284;9.892;2023-05-10T11:41:18;19.40;99.90
20102;DHT22;10210;52.284;9.892;2023-05-10T11:43:48;19.50;99.90
20102;DHT22;10210;52.284;9.892;2023-05-10T11:46:20;19.60;99.90
20102;DHT22;10210;52.284;9.892;2023-05-10T11:48:52;19.60;99.90
20102;DHT22;10210;52.284;9.892;2023-05-10T11:51:23;19.70;99.90
20102;DHT22;10210;52.284;9.892;2023-05-10T11:53:52;19.80;99.90
20102;DHT22;10210;52.284;9.892;2023-05-10T11:56:19;19.90;99.90
20102;DHT22;10210;52.284;9.892;2023-05-10T11:58:55;19.90;99.90
20102;DHT22;10210;52.284;9.892;2023-05-10T12:01:23;20.00;99.90
20102;DHT22;10210;52.284;9.892;2023-05-10T12:03:54;20.10;99.90
20102;DHT22;10210;52.284;9.892;2023-05-10T12:06:26;20.20;99.90
20102;DHT22;10210;52.284;9.892;2023-05-10T12:08:54;20.40;99.90
20102;DHT22;10210;52.284;9.892;2023-05-10T12:11:23;20.40;99.90
20102;DHT22;10210;52.284;9.892;2023-05-10T12:13:51;20.50;99.90
20102;DHT22;10210;52.284;9.892;2023-05-10T12:16:19;20.60;99.90
20102;DHT22;10210;52.284;9.892;2023-05-10T12:18:53;20.60;99.90
20102;DHT22;10210;52.284;9.892;2023-05-10T12:21:21;20.70;99.90
20102;DHT22;10210;52.284;9.892;2023-05-10T12:23:50;20.70;99.90
20102;DHT22;10210;52.284;9.892;2023-05-10T12:26:17;20.70;99.90
20102;DHT22;10210;52.284;9.892;2023-05-10T12:28:43;20.70;99.90
20102;DHT22;10210;52.284;9.892;2023-05-10T12:31:08;20.70;99.90
20102;DHT22;10210;52.284;9.892;2023-05-10T12:33:42;20.70;99.90
20102;DHT22;10210;52.284;9.892;2023-05-10T12:36:09;20.60;99.90
20102;DHT22;10210;52.284;9.892;2023-05-10T12:38:41;20.60;99.90
20102;DHT22;10210;52.284;9.892;2023-05-10T12:41:16;20.50;99.90
20102;DHT22;10210;52.284;9.892;2023-05-10T12:43:43;20.40;99.90
20102;DHT22;10210;52.284;9.892;2023-05-10T12:46:12;20.30;99.90
20102;DHT22;10210;52.284;9.892;2023-05-10T12:48:41;20.20;99.90
20102;DHT22;10210;52.284;9.892;2023-05-10T12:51:08;20.10;99.90
20102;DHT22;10210;52.284;9.892;2023-05-10T12:53:35;20.00;99.90
20102;DHT22;10210;52.284;9.892;2023-05-10T12:56:01;19.90;99.90
20102;DHT22;10210;52.284;9.892;2023-05-10T12:58:28;19.90;99.90
20102;DHT22;10210;52.284;9.892;2023-05-10T13:00:53;19.90;99.90
20102;DHT22;10210;52.284;9.892;2023-05-10T13:03:21;19.90;99.90
20102;DHT22;10210;52.284;9.892;2023-05-10T13:05:47;19.90;99.90
20102;DHT22;10210;52.284;9.892;2023-05-10T13:08:13;19.90;99.90
20102;DHT22;10210;52.284;9.892;2023-05-10T13:10:39;19.90;99.90
20102;DHT22;10210;52.284;9.892;2023-05-10T13:13:05;20.00;99.90
20102;DHT22;10210;52.284;9.892;2023-05-10T13:15:31;20.00;99.90
20102;DHT22;10210;52.284;9.892;2023-05-10T13:17:57;20.00;99.90
20102;DHT22;10210;52.284;9.892;2023-05-10T13:20:23;20.10;99.90
20102;DHT22;10210;52.284;9.892;2023-05-10T13:22:48;20.10;99.90
20102;DHT22;10210;52.284;9.892;2023-05-10T13:25:15;20.10;99.90
20102;DHT22;10210;52.284;9.892;2023-05-10T13:27:40;20.20;99.90
20102;DHT22;10210;52.284;9.892;2023-05-10T13:30:08;20.30;99.90
20102;DHT22;10210;52.284;9.892;2023-05-10T13:32:35;20.40;99.90
20102;DHT22;10210;52.284;9.892;2023-05-10T13:35:01;20.40;99.90
20102;DHT22;10210;52.284;9.892;2023-05-10T13:37:29;20.50;99.90
20102;DHT22;10210;52.284;9.892;2023-05-10T13:39:55;20.60;99.90
20102;DHT22;10210;52.284;9.892;2023-05-10T13:42:22;20.60;99.90
20102;DHT22;10210;52.284;9.892;2023-05-10T13:44:49;20.60;99.90
20102;DHT22;10210;52.284;9.892;2023-05-10T13:47:15;20.70;99.90
20102;DHT22;10210;52.284;9.892;2023-05-10T13:49:41;20.70;99.90
20102;DHT22;10210;52.284;9.892;2023-05-10T13:52:07;20.70;99.90
20102;DHT22;10210;52.284;9.892;2023-05-10T13:54:33;20.70;99.90
20102;DHT22;10210;52.284;9.892;2023-05-10T13:56:59;20.80;99.90
20102;DHT22;10210;52.284;9.892;2023-05-10T13:59:25;20.80;99.90
20102;DHT22;10210;52.284;9.892;2023-05-10T14:01:52;20.80;99.90
20102;DHT22;10210;52.284;9.892;2023-05-10T14:04:17;20.80;99.90
20102;DHT22;10210;52.284;9.892;2023-05-10T14:06:43;20.80;99.90
20102;DHT22;10210;52.284;9.892;2023-05-10T14:09:09;20.80;99.90
20102;DHT22;10210;52.284;9.892;2023-05-10T14:11:35;20.80;99.90
20102;DHT22;10210;52.284;9.892;2023-05-10T14:14:01;20.80;99.90
20102;DHT22;10210;52.284;9.892;2023-05-10T14:16:26;20.80;99.90
20102;DHT22;10210;52.284;9.892;2023-05-10T14:18:52;20.80;99.90
20102;DHT22;10210;52.284;9.892;2023-05-10T14:21:18;20.80;99.90
20102;DHT22;10210;52.284;9.892;2023-05-10T14:23:44;20.80;99.90
20102;DHT22;10210;52.284;9.892;2023-05-10T14:26:09;20.90;99.90
20102;DHT22;10210;52.284;9.892;2023-05-10T14:28:35;20.90;99.90
20102;DHT22;10210;52.284;9.892;2023-05-10T14:31:01;20.90;99.90
20102;DHT22;10210;52.284;9.892;2023-05-10T14:33:27;20.90;99.90
20102;DHT22;10210;52.284;9.892;2023-05-10T14:35:54;21.00;99.90
20102;DHT22;10210;52.284;9.892;2023-05-10T14:38:22;21.00;99.90
20102;DHT22;10210;52.284;9.892;2023-05-10T14:40:48;21.00;99.90
20102;DHT22;10210;52.284;9.892;2023-05-10T14:43:13;21.10;99.90
20102;DHT22;10210;52.284;9.892;2023-05-10T14:45:39;21.10;99.90
20102;DHT22;10210;52.284;9.892;2023-05-10T14:48:05;21.20;99.90
20102;DHT22;10210;52.284;9.892;2023-05-10T14:50:31;21.20;99.90
20102;DHT22;10210;52.284;9.892;2023-05-10T14:52:57;21.20;99.90
20102;DHT22;10210;52.284;9.892;2023-05-10T14:55:24;21.20;99.90
20102;DHT22;10210;52.284;9.892;2023-05-10T14:57:49;21.20;99.90
20102;DHT22;10210;52.284;9.892;2023-05-10T15:00:16;21.20;99.90
20102;DHT22;10210;52.284;9.892;2023-05-10T15:02:43;21.20;99.90
20102;DHT22;10210;52.284;9.892;2023-05-10T15:05:09;21.20;99.90
20102;DHT22;10210;52.284;9.892;2023-05-10T15:07:35;21.20;99.90
20102;DHT22;10210;52.284;9.892;2023-05-10T15:10:00;21.20;99.90
20102;DHT22;10210;52.284;9.892;2023-05-10T15:12:26;21.30;99.90
20102;DHT22;10210;52.284;9.892;2023-05-10T15:14:51;21.30;99.90
20102;DHT22;10210;52.284;9.892;2023-05-10T15:17:17;21.30;99.90
20102;DHT22;10210;52.284;9.892;2023-05-10T15:19:43;21.30;99.90
20102;DHT22;10210;52.284;9.892;2023-05-10T15:22:08;21.30;99.90
20102;DHT22;10210;52.284;9.892;2023-05-10T15:24:34;21.30;99.90
20102;DHT22;10210;52.284;9.892;2023-05-10T15:27:00;21.30;99.90
20102;DHT22;10210;52.284;9.892;2023-05-10T15:29:26;21.30;99.90
20102;DHT22;10210;52.284;9.892;2023-05-10T15:31:51;21.20;99.90
20102;DHT22;10210;52.284;9.892;2023-05-10T15:34:18;21.20;99.90
20102;DHT22;10210;52.284;9.892;2023-05-10T15:36:44;21.20;99.90
20102;DHT22;10210;52.284;9.892;2023-05-10T15:39:11;21.10;99.90
20102;DHT22;10210;52.284;9.892;2023-05-10T15:41:37;21.10;99.90
20102;DHT22;10210;52.284;9.892;2023-05-10T15:44:03;21.00;99.90
20102;DHT22;10210;52.284;9.892;2023-05-10T15:46:29;21.00;99.90
20102;DHT22;10210;52.284;9.892;2023-05-10T15:48:57;21.00;99.90
20102;DHT22;10210;52.284;9.892;2023-05-10T15:51:23;20.90;99.90
20102;DHT22;10210;52.284;9.892;2023-05-10T15:53:49;20.80;99.90
20102;DHT22;10210;52.284;9.892;2023-05-10T15:56:15;20.80;99.90
20102;DHT22;10210;52.284;9.892;2023-05-10T15:58:40;20.70;99.90
20102;DHT22;10210;52.284;9.892;2023-05-10T16:01:08;20.70;99.90
20102;DHT22;10210;52.284;9.892;2023-05-10T16:03:34;20.60;99.90
20102;DHT22;10210;52.284;9.892;2023-05-10T16:06:00;20.40;99.90
20102;DHT22;10210;52.284;9.892;2023-05-10T16:08:27;20.30;99.90
20102;DHT22;10210;52.284;9.892;2023-05-10T16:10:55;20.10;99.90